Time;durP1;ratioP1;P1;durP2;ratioP2;P2;SDS_P1;SDS_P2;PMS_P1;PMS_P2;Temp;Humidity;BMP_temperature;BMP_pressure;BME280_temperature;BME280_humidity;BME280_pressure;Samples;Min_cycle;Max_cycle;Signal;HPM_P1;HPM_P2
2024/02/17 00:00:06;;;;;;;15.85;3.85;;;;;;;6.07;60.17;102095.94;4901358;28;20297;-71
2024/02/17 00:02:37;;;;;;;12.48;3.42;;;;;;;5.87;60.64;102095.94;4916302;28;20283;-75
2024/02/17 00:05:03;;;;;;;10.82;4.43;;;;;;;5.70;60.83;102092.50;4915190;28;20396;-76
2024/02/17 00:07:35;;;;;;;14.57;4.35;;;;;;;5.48;61.57;102099.41;4914440;28;20436;-70
2024/02/17 00:10:03;;;;;;;19.48;4.70;;;;;;;5.41;61.66;102098.53;4908133;28;20358;-72
2024/02/17 00:12:29;;;;;;;16.30;4.47;;;;;;;5.21;62.58;102101.97;4948255;28;20511;-70
2024/02/17 00:14:54;;;;;;;13.63;4.05;;;;;;;5.65;61.34;102111.50;4969060;28;25067;-69
2024/02/17 00:17:20;;;;;;;15.95;3.78;;;;;;;5.77;60.85;102122.75;4987374;28;20046;-70
2024/02/17 00:19:46;;;;;;;14.98;3.97;;;;;;;5.84;59.98;102119.31;4980583;28;20482;-72
2024/02/17 00:22:13;;;;;;;21.33;4.68;;;;;;;5.62;61.25;102121.91;4994015;28;20064;-72
2024/02/17 00:24:39;;;;;;;16.88;4.70;;;;;;;5.25;62.18;102126.16;4962139;28;20033;-72
2024/02/17 00:27:05;;;;;;;8.48;3.20;;;;;;;5.46;61.71;102130.53;4961205;28;20945;-70
2024/02/17 00:29:30;;;;;;;17.65;2.85;;;;;;;5.64;61.27;102138.31;4998116;28;20409;-71
2024/02/17 00:31:56;;;;;;;14.02;3.47;;;;;;;5.52;61.70;102137.44;4962528;28;20076;-70
2024/02/17 00:34:23;;;;;;;12.82;3.10;;;;;;;5.35;62.26;102148.66;4994039;28;20124;-71
2024/02/17 00:36:48;;;;;;;11.52;3.05;;;;;;;5.56;61.61;102147.81;4980634;28;20439;-72
2024/02/17 00:39:14;;;;;;;18.35;3.13;;;;;;;5.61;61.41;102160.78;4992425;28;20040;-72
2024/02/17 00:41:40;;;;;;;8.25;2.60;;;;;;;5.89;60.38;102151.31;4972068;28;20046;-72
2024/02/17 00:44:05;;;;;;;13.82;3.95;;;;;;;5.83;60.71;102156.50;4964644;28;20037;-73
2024/02/17 00:46:31;;;;;;;9.57;3.63;;;;;;;5.63;60.97;102152.13;4988927;28;20053;-73
2024/02/17 00:48:56;;;;;;;10.25;3.33;;;;;;;5.54;61.21;102154.72;4965371;28;20044;-72
2024/02/17 00:51:23;;;;;;;13.90;3.13;;;;;;;5.82;60.31;102155.63;4971070;28;20063;-72
2024/02/17 00:53:48;;;;;;;14.45;3.63;;;;;;;5.31;61.73;102146.06;4983411;28;20116;-73
2024/02/17 00:56:14;;;;;;;8.88;3.67;;;;;;;5.55;61.44;102166.84;4974041;28;20045;-73
2024/02/17 00:58:40;;;;;;;7.45;2.60;;;;;;;5.81;60.62;102176.38;4977927;28;20044;-72
2024/02/17 01:01:06;;;;;;;5.80;3.03;;;;;;;5.87;60.33;102178.97;4964091;28;21086;-72
2024/02/17 01:03:34;;;;;;;7.75;2.63;;;;;;;5.44;61.48;102178.94;4948273;28;20214;-70
2024/02/17 01:06:03;;;;;;;16.35;3.58;;;;;;;5.02;62.46;102193.47;4911742;28;20222;-72
2024/02/17 01:08:30;;;;;;;12.45;3.05;;;;;;;5.41;61.63;102195.34;4897442;28;20264;-72
2024/02/17 01:10:57;;;;;;;3.67;2.42;;;;;;;5.39;61.53;102196.19;4923735;28;20885;-73
2024/02/17 01:13:23;;;;;;;11.57;3.05;;;;;;;5.32;61.42;102199.63;4910788;28;20175;-72
2024/02/17 01:15:49;;;;;;;9.38;3.33;;;;;;;5.32;61.44;102199.63;4901062;28;20238;-69
2024/02/17 01:18:17;;;;;;;13.30;3.30;;;;;;;5.04;62.38;102199.53;4919120;28;20037;-69
2024/02/17 01:20:45;;;;;;;14.45;2.75;;;;;;;5.44;61.05;102204.84;4931446;28;20528;-72
2024/02/17 01:23:12;;;;;;;9.60;3.58;;;;;;;5.34;61.14;102209.13;4939073;28;20322;-69
2024/02/17 01:25:38;;;;;;;10.48;2.90;;;;;;;5.32;61.75;102210.00;4902588;28;20048;-71
2024/02/17 01:28:05;;;;;;;9.50;2.80;;;;;;;5.46;60.90;102213.50;4957672;28;20041;-72
2024/02/17 01:30:31;;;;;;;12.23;4.15;;;;;;;5.44;60.65;102216.09;4969146;28;21308;-69
2024/02/17 01:32:56;;;;;;;11.13;3.10;;;;;;;5.08;61.83;102214.25;4959926;28;20574;-69
2024/02/17 01:35:22;;;;;;;9.35;2.83;;;;;;;5.35;61.25;102216.06;4993216;28;20526;-69
2024/02/17 01:37:48;;;;;;;14.85;4.07;;;;;;;5.35;61.19;102220.41;4993928;28;20154;-68
2024/02/17 01:40:16;;;;;;;7.00;2.28;;;;;;;5.50;60.94;102223.00;4952910;28;20656;-69
2024/02/17 01:42:42;;;;;;;10.55;2.90;;;;;;;5.54;60.96;102221.28;4983241;28;20033;-69
2024/02/17 01:45:10;;;;;;;10.10;2.17;;;;;;;5.65;60.99;102229.97;4987481;28;20463;-69
2024/02/17 01:47:37;;;;;;;7.30;2.75;;;;;;;5.56;60.68;102232.53;4991845;28;20764;-75
2024/02/17 01:50:04;;;;;;;8.27;2.00;;;;;;;5.57;60.91;102231.66;4946203;28;20049;-77
2024/02/17 01:52:30;;;;;;;7.40;3.05;;;;;;;5.48;61.51;102236.84;4979842;28;20161;-76
2024/02/17 01:54:58;;;;;;;12.48;3.63;;;;;;;5.44;61.46;102235.97;4986578;28;20037;-77
2024/02/17 01:57:23;;;;;;;12.18;3.13;;;;;;;5.69;61.11;102243.81;4997894;28;20193;-77
2024/02/17 01:59:49;;;;;;;6.47;2.63;;;;;;;5.78;60.99;102242.09;5000766;28;20044;-77
2024/02/17 02:02:15;;;;;;;7.80;2.58;;;;;;;5.69;60.78;102243.81;4987472;28;20737;-77
2024/02/17 02:04:41;;;;;;;13.00;2.25;;;;;;;5.76;60.75;102248.16;4964956;28;20040;-77
2024/02/17 02:07:06;;;;;;;6.63;1.35;;;;;;;5.67;61.09;102255.03;4983962;28;20052;-77
2024/02/17 02:09:32;;;;;;;11.15;1.75;;;;;;;5.76;60.60;102248.16;4986344;28;20033;-76
2024/02/17 02:12:00;;;;;;;11.48;2.80;;;;;;;5.36;61.95;102253.22;4986559;28;20056;-77
2024/02/17 02:14:25;;;;;;;7.07;1.73;;;;;;;5.56;61.23;102255.88;4998506;28;20386;-77
2024/02/17 02:16:51;;;;;;;10.70;1.52;;;;;;;5.45;60.94;102255.84;4986551;28;20046;-76
2024/02/17 02:19:18;;;;;;;5.35;1.92;;;;;;;5.25;61.95;102260.94;4962969;28;21517;-74
2024/02/17 02:21:44;;;;;;;3.58;1.13;;;;;;;5.25;61.67;102253.16;4983074;28;20033;-72
2024/02/17 02:24:10;;;;;;;12.55;1.75;;;;;;;5.16;61.44;102256.59;4957930;28;20490;-81
2024/02/17 02:26:36;;;;;;;4.80;0.52;;;;;;;5.28;60.88;102258.38;4979076;28;20136;-74
2024/02/17 02:29:02;;;;;;;10.15;1.23;;;;;;;5.49;60.36;102259.31;4963389;28;20068;-73
2024/02/17 02:31:29;;;;;;;12.88;2.00;;;;;;;5.48;60.00;102263.66;4977818;28;20100;-73
2024/02/17 02:33:55;;;;;;;1.88;0.20;;;;;;;5.51;60.18;102266.25;4995336;28;20037;-69
2024/02/17 02:36:21;;;;;;;1.63;0.40;;;;;;;5.49;59.38;102269.69;4965121;28;20937;-76
2024/02/17 02:38:47;;;;;;;5.80;0.43;;;;;;;5.34;60.23;102270.50;4902902;28;20277;-67
2024/02/17 02:41:15;;;;;;;7.55;0.30;;;;;;;5.37;59.58;102275.69;4926609;28;20219;-67
2024/02/17 02:43:45;;;;;;;2.72;0.75;;;;;;;5.47;59.85;102274.88;4925766;28;20839;-70
2024/02/17 02:46:12;;;;;;;6.03;0.77;;;;;;;5.34;59.54;102280.88;4902969;28;20247;-67
2024/02/17 02:48:42;;;;;;;1.13;0.20;;;;;;;5.29;59.74;102285.19;4926322;28;20624;-67
2024/02/17 02:51:08;;;;;;;2.92;0.22;;;;;;;5.46;59.08;102291.31;4984088;28;20065;-70
2024/02/17 02:53:33;;;;;;;5.55;0.20;;;;;;;5.56;58.48;102293.06;4986167;28;20042;-70
2024/02/17 02:55:59;;;;;;;1.98;0.20;;;;;;;5.48;58.52;102297.38;4960338;28;20064;-72
2024/02/17 02:58:24;;;;;;;1.52;0.30;;;;;;;5.61;58.20;102304.34;4969165;28;20132;-75
2024/02/17 03:00:50;;;;;;;2.20;0.20;;;;;;;5.56;58.17;102313.81;4991754;28;20044;-72
2024/02/17 03:03:16;;;;;;;4.63;0.17;;;;;;;5.42;58.35;102305.13;4955190;28;20048;-73
2024/02/17 03:05:42;;;;;;;3.83;0.17;;;;;;;5.39;58.35;102320.63;4947886;28;20033;-73
2024/02/17 03:08:07;;;;;;;4.00;0.40;;;;;;;5.36;58.66;102326.69;4986113;28;20044;-74
2024/02/17 03:10:33;;;;;;;1.98;0.20;;;;;;;5.43;58.62;102328.44;4991220;28;20403;-74
2024/02/17 03:12:59;;;;;;;1.40;0.20;;;;;;;5.45;58.60;102328.44;4995820;28;20060;-75
2024/02/17 03:15:24;;;;;;;2.38;0.17;;;;;;;4.80;60.36;102330.63;4981307;28;24665;-71
2024/02/17 03:17:53;;;;;;;3.00;0.17;;;;;;;4.96;60.41;102330.75;4951320;28;20041;-79
2024/02/17 03:20:19;;;;;;;2.22;0.30;;;;;;;4.82;60.82;102339.28;4970700;28;20709;-80
2024/02/17 03:22:45;;;;;;;0.70;0.10;;;;;;;4.33;62.07;102345.75;5003482;28;20539;-77
2024/02/17 03:25:11;;;;;;;5.15;0.25;;;;;;;4.50;61.85;102353.66;4986886;28;20045;-77
2024/02/17 03:27:37;;;;;;;4.63;0.20;;;;;;;4.65;61.75;102361.56;4963649;28;20430;-75
2024/02/17 03:30:05;;;;;;;2.20;0.10;;;;;;;4.35;62.37;102368.22;4970505;28;20030;-75
2024/02/17 03:32:32;;;;;;;3.47;0.10;;;;;;;4.09;62.48;102367.06;4972155;28;20049;-76
2024/02/17 03:34:59;;;;;;;1.73;0.40;;;;;;;4.31;61.77;102378.53;4991724;28;20566;-75
2024/02/17 03:37:25;;;;;;;0.05;0.00;;;;;;;4.05;62.05;102373.94;4961743;28;21220;-75
2024/02/17 03:39:51;;;;;;;5.03;0.82;;;;;;;4.02;61.97;102374.75;4961730;28;20384;-74
2024/02/17 03:42:16;;;;;;;1.45;0.00;;;;;;;4.26;61.39;102377.63;4968797;28;20105;-74
2024/02/17 03:44:42;;;;;;;0.40;0.03;;;;;;;4.25;61.00;102381.91;4994032;28;20108;-74
2024/02/17 03:47:08;;;;;;;0.50;0.00;;;;;;;4.19;61.07;102387.91;4969708;28;20050;-73
2024/02/17 03:49:33;;;;;;;1.20;0.00;;;;;;;4.10;61.33;102397.28;4974357;28;20547;-73
2024/02/17 03:51:59;;;;;;;10.93;0.52;;;;;;;3.94;61.74;102399.69;4978492;28;20044;-72
2024/02/17 03:54:25;;;;;;;5.38;0.10;;;;;;;4.01;61.13;102409.25;4965817;28;20030;-73
2024/02/17 03:56:50;;;;;;;3.35;0.17;;;;;;;4.17;60.65;102407.72;4977390;28;20045;-73
2024/02/17 03:59:16;;;;;;;2.83;0.15;;;;;;;4.11;60.57;102409.38;4979950;28;20630;-73
2024/02/17 04:01:42;;;;;;;6.15;0.32;;;;;;;4.09;60.49;102416.22;4995081;28;20092;-74
2024/02/17 04:04:08;;;;;;;1.42;0.00;;;;;;;4.34;59.28;102423.44;4976774;28;20586;-73
2024/02/17 04:06:35;;;;;;;2.45;0.10;;;;;;;4.12;59.93;102431.78;4933171;28;20041;-73
2024/02/17 04:09:02;;;;;;;1.90;0.10;;;;;;;4.31;58.88;102433.75;4934300;28;20060;-76
2024/02/17 04:11:30;;;;;;;1.73;0.10;;;;;;;4.20;59.39;102435.34;4923577;28;20049;-73
2024/02/17 04:13:59;;;;;;;0.08;0.00;;;;;;;4.57;58.34;102440.94;4958578;28;20373;-75
2024/02/17 04:16:25;;;;;;;1.70;0.10;;;;;;;4.35;58.73;102445.88;4929500;28;20499;-74
2024/02/17 04:18:51;;;;;;;4.45;0.20;;;;;;;4.53;57.76;102454.69;4919493;28;20062;-74
2024/02/17 04:21:19;;;;;;;0.70;0.13;;;;;;;4.47;57.81;102460.66;4915238;28;20676;-74
2024/02/17 04:23:46;;;;;;;3.00;0.00;;;;;;;4.60;57.78;102464.25;4930103;28;20135;-79
2024/02/17 04:26:13;;;;;;;1.88;0.10;;;;;;;4.65;57.57;102475.53;4947170;28;20045;-82
2024/02/17 04:28:46;;;;;;;2.70;0.10;;;;;;;4.84;56.91;102472.28;4948826;28;20033;-81
2024/02/17 04:31:17;;;;;;;1.58;0.08;;;;;;;4.82;56.99;102484.34;4968346;28;20246;-79
2024/02/17 04:33:43;;;;;;;4.50;0.10;;;;;;;4.70;57.59;102489.41;4965113;28;20033;-81
2024/02/17 04:36:13;;;;;;;2.03;0.40;;;;;;;4.80;57.44;102487.78;4943269;28;20094;-78
2024/02/17 04:38:41;;;;;;;0.55;0.20;;;;;;;4.48;58.23;102497.81;4914914;28;20616;-76
2024/02/17 04:41:06;;;;;;;1.35;0.10;;;;;;;4.67;57.75;102504.91;4928842;28;20041;-79
2024/02/17 04:43:32;;;;;;;0.22;0.10;;;;;;;4.80;57.79;102501.59;4959655;28;21669;-72
2024/02/17 04:45:57;;;;;;;3.80;0.20;;;;;;;4.52;58.63;102510.81;4990740;28;20041;-75
2024/02/17 04:48:23;;;;;;;2.70;0.10;;;;;;;4.71;58.06;102516.19;4946940;28;20033;-70
2024/02/17 04:50:48;;;;;;;12.25;0.73;;;;;;;4.69;57.87;102517.88;4967851;28;20212;-78
2024/02/17 04:53:14;;;;;;;1.58;0.10;;;;;;;4.82;57.34;102528.38;4951115;28;23478;-72
2024/02/17 04:55:40;;;;;;;1.52;0.08;;;;;;;4.34;58.50;102526.09;4986510;28;20680;-70
2024/02/17 04:58:06;;;;;;;2.38;0.10;;;;;;;4.31;59.18;102526.06;4987396;28;20076;-78
2024/02/17 05:00:32;;;;;;;2.13;0.10;;;;;;;4.47;58.61;102530.56;4965177;28;20033;-76
2024/02/17 05:02:58;;;;;;;3.60;0.22;;;;;;;4.02;59.86;102539.50;4974013;28;20120;-78
2024/02/17 05:05:23;;;;;;;2.28;0.63;;;;;;;4.10;59.41;102534.44;4941251;28;20063;-76
2024/02/17 05:07:48;;;;;;;2.85;0.10;;;;;;;4.39;58.72;102534.81;4985660;28;20060;-72
2024/02/17 05:10:14;;;;;;;2.38;0.30;;;;;;;4.33;59.12;102539.91;4987920;28;20065;-71
2024/02/17 05:12:40;;;;;;;8.32;0.10;;;;;;;4.57;58.29;102536.75;4985179;28;20041;-72
2024/02/17 05:15:06;;;;;;;3.30;0.10;;;;;;;4.65;58.08;102545.47;4973995;28;20041;-75
2024/02/17 05:17:33;;;;;;;4.47;0.20;;;;;;;4.35;58.94;102552.00;4963776;28;20077;-72
2024/02/17 05:20:01;;;;;;;0.22;0.00;;;;;;;4.27;58.85;102556.22;4994242;28;20022;-73
2024/02/17 05:22:27;;;;;;;1.33;0.10;;;;;;;4.05;58.18;102555.06;4962989;28;20246;-74
2024/02/17 05:24:52;;;;;;;2.25;0.00;;;;;;;4.22;57.10;102563.06;4995242;28;20483;-74
2024/02/17 05:27:18;;;;;;;2.30;0.00;;;;;;;4.25;56.76;102563.09;4966963;28;20048;-74
2024/02/17 05:29:43;;;;;;;0.20;0.00;;;;;;;3.79;57.52;102562.44;4974090;28;20099;-74
2024/02/17 05:32:09;;;;;;;2.53;0.20;;;;;;;3.77;56.76;102567.59;4989555;28;20071;-75
2024/02/17 05:34:35;;;;;;;2.00;0.00;;;;;;;3.93;55.97;102573.00;4983192;28;20037;-72
2024/02/17 05:37:03;;;;;;;2.00;0.20;;;;;;;3.71;56.33;102574.38;4988430;28;20048;-73
2024/02/17 05:39:31;;;;;;;2.47;0.00;;;;;;;3.71;56.12;102584.72;4978551;28;20029;-65
2024/02/17 05:42:01;;;;;;;6.13;0.10;;;;;;;3.58;56.73;102583.63;4937537;28;20218;-73
2024/02/17 05:44:32;;;;;;;1.75;0.10;;;;;;;3.65;56.07;102579.44;4920673;28;20192;-74
2024/02/17 05:47:01;;;;;;;1.33;0.28;;;;;;;3.54;56.32;102585.31;4902699;28;20171;-70
2024/02/17 05:49:27;;;;;;;1.35;0.17;;;;;;;3.58;56.14;102589.72;4937410;28;20223;-68
2024/02/17 05:51:56;;;;;;;3.03;0.40;;;;;;;3.51;56.29;102594.72;4926065;28;20738;-68
2024/02/17 05:54:28;;;;;;;4.30;0.20;;;;;;;3.53;56.02;102601.66;4915878;28;20041;-69
2024/02/17 05:56:54;;;;;;;5.38;0.30;;;;;;;3.48;56.29;102603.31;4901951;28;20382;-69
2024/02/17 05:59:23;;;;;;;0.95;0.10;;;;;;;3.57;55.64;102608.63;4906367;28;20044;-72
2024/02/17 06:01:51;;;;;;;2.58;0.10;;;;;;;3.39;56.66;102614.34;4892644;28;20041;-70
2024/02/17 06:04:17;;;;;;;4.60;0.20;;;;;;;3.42;56.73;102608.38;4906125;28;20077;-68
2024/02/17 06:06:42;;;;;;;2.20;0.08;;;;;;;3.38;57.10;102619.47;4929590;28;20047;-69
2024/02/17 06:09:08;;;;;;;1.80;0.10;;;;;;;3.69;56.34;102622.59;4977957;28;20643;-67
2024/02/17 06:11:33;;;;;;;1.63;0.10;;;;;;;3.77;56.60;102633.97;4956726;28;20045;-69
2024/02/17 06:13:59;;;;;;;2.28;0.00;;;;;;;3.77;56.40;102636.56;4997018;28;20026;-70
2024/02/17 06:16:28;;;;;;;1.88;0.10;;;;;;;3.75;56.45;102638.25;4966308;28;21858;-71
2024/02/17 06:21:38;;;;;;;1.83;0.08;;;;;;;3.46;56.72;102636.00;4982907;28;20045;-68
2024/02/17 06:24:04;;;;;;;2.83;0.10;;;;;;;3.47;57.30;102635.19;4998010;28;20033;-69
2024/02/17 06:26:31;;;;;;;0.95;0.10;;;;;;;3.46;56.70;102638.59;4979914;28;20061;-77
2024/02/17 06:28:58;;;;;;;0.17;0.03;;;;;;;3.27;57.88;102642.53;4993331;28;20128;-70
2024/02/17 06:31:24;;;;;;;2.05;0.17;;;;;;;3.24;58.35;102649.34;4970908;28;20067;-71
2024/02/17 06:33:51;;;;;;;4.25;0.20;;;;;;;3.28;58.04;102652.03;4976080;28;20037;-70
2024/02/17 06:36:18;;;;;;;6.95;0.10;;;;;;;3.21;58.36;102651.88;4990887;28;20515;-69
2024/02/17 06:38:43;;;;;;;4.35;0.28;;;;;;;3.11;58.88;102656.88;4986352;28;20173;-74
2024/02/17 06:41:10;;;;;;;1.40;0.20;;;;;;;3.23;58.40;102665.72;4990792;28;20057;-74
2024/02/17 06:43:36;;;;;;;0.40;0.00;;;;;;;3.26;58.28;102673.50;4967854;28;20044;-74
2024/02/17 06:46:02;;;;;;;1.67;0.63;;;;;;;3.25;58.36;102677.81;4994444;28;20053;-69
2024/02/17 06:48:28;;;;;;;2.38;0.10;;;;;;;3.25;58.37;102672.66;4986349;28;20029;-72
2024/02/17 06:50:54;;;;;;;1.73;0.55;;;;;;;3.13;58.56;102682.72;4978444;28;20561;-74
2024/02/17 06:53:20;;;;;;;2.70;0.00;;;;;;;3.27;58.67;102693.34;4984404;28;20223;-76
2024/02/17 06:55:49;;;;;;;2.13;0.10;;;;;;;3.33;58.73;102699.53;4910941;28;20211;-69
2024/02/17 06:58:15;;;;;;;1.55;0.10;;;;;;;3.32;58.57;102702.97;4935490;28;20057;-69
2024/02/17 07:00:42;;;;;;;7.30;0.30;;;;;;;3.49;58.74;102708.47;4910405;28;20344;-69
2024/02/17 07:03:09;;;;;;;3.60;0.65;;;;;;;3.57;58.32;102712.06;4920977;28;20037;-70
2024/02/17 07:05:36;;;;;;;1.02;0.40;;;;;;;3.53;58.36;102715.41;4907250;28;20264;-70
2024/02/17 07:08:03;;;;;;;7.85;0.20;;;;;;;3.44;58.50;102728.19;4895514;28;20417;-70
2024/02/17 07:10:29;;;;;;;1.90;0.08;;;;;;;3.67;58.21;102727.75;4945638;28;20037;-73
2024/02/17 07:12:55;;;;;;;2.17;0.10;;;;;;;3.76;57.95;102727.91;4962377;28;20064;-74
2024/02/17 07:15:20;;;;;;;2.47;0.15;;;;;;;3.87;57.87;102735.88;4992109;28;20033;-74
2024/02/17 07:17:47;;;;;;;2.25;0.20;;;;;;;3.81;57.88;102752.16;4985199;28;20068;-74
2024/02/17 07:20:13;;;;;;;3.85;0.10;;;;;;;3.93;57.90;102754.97;4997270;28;20241;-75
2024/02/17 07:22:39;;;;;;;0.85;0.10;;;;;;;3.82;57.73;102746.13;4982611;28;20416;-73
2024/02/17 07:25:05;;;;;;;2.40;0.10;;;;;;;4.15;57.52;102752.75;4980866;28;20033;-71
2024/02/17 07:27:30;;;;;;;2.42;0.20;;;;;;;4.31;57.42;102765.09;4951976;28;20502;-78
2024/02/17 07:29:56;;;;;;;3.30;0.17;;;;;;;4.28;57.00;102764.19;4960147;28;20033;-67
2024/02/17 07:32:25;;;;;;;1.27;0.10;;;;;;;4.09;57.86;102768.16;4992317;28;20041;-68
2024/02/17 07:34:51;;;;;;;1.77;0.00;;;;;;;4.30;56.96;102775.44;4986019;28;21037;-73
2024/02/17 07:37:19;;;;;;;2.58;0.10;;;;;;;4.32;57.29;102787.56;4974129;28;20045;-70
2024/02/17 07:39:47;;;;;;;2.17;0.22;;;;;;;4.21;57.50;102789.09;4968969;28;20033;-69
2024/02/17 07:42:12;;;;;;;1.35;0.10;;;;;;;4.20;57.14;102798.56;4976166;28;20044;-77
2024/02/17 07:44:42;;;;;;;0.80;0.00;;;;;;;3.94;58.01;102795.53;4968259;28;20715;-75
2024/02/17 07:47:07;;;;;;;4.40;0.10;;;;;;;4.16;57.83;102795.88;4991827;28;20049;-73
2024/02/17 07:49:33;;;;;;;3.95;0.40;;;;;;;3.98;58.08;102802.50;4990590;28;20414;-71
2024/02/17 07:51:59;;;;;;;4.70;1.00;;;;;;;4.16;57.79;102814.00;4983644;28;20388;-69
2024/02/17 07:54:24;;;;;;;3.75;0.20;;;;;;;4.35;56.77;102817.81;4962990;28;20044;-76
2024/02/17 07:56:50;;;;;;;3.10;0.30;;;;;;;4.42;56.90;102817.06;4985940;28;20037;-74
2024/02/17 07:59:16;;;;;;;8.25;0.30;;;;;;;4.53;56.94;102820.69;4933316;28;20112;-72
2024/02/17 08:01:43;;;;;;;3.65;0.20;;;;;;;4.84;56.28;102827.22;4911214;28;20127;-68
2024/02/17 08:05:02;;;;;;;6.85;0.73;;;;;;;5.07;55.08;102837.09;4927199;28;20288;-69
2024/02/17 08:07:29;;;;;;;2.28;0.15;;;;;;;5.12;55.33;102840.63;4896680;28;20349;-67
2024/02/17 08:09:56;;;;;;;7.35;0.30;;;;;;;5.30;55.42;102844.31;4938597;28;20314;-72
2024/02/17 08:12:23;;;;;;;9.15;0.20;;;;;;;4.91;55.43;102842.91;4935892;28;20518;-73
2024/02/17 08:14:51;;;;;;;4.25;0.68;;;;;;;5.08;54.95;102854.41;4978593;28;20124;-70
2024/02/17 08:17:19;;;;;;;10.02;0.98;;;;;;;5.07;55.15;102857.84;4987691;28;20490;-79
2024/02/17 08:19:45;;;;;;;1.98;0.20;;;;;;;5.14;55.10;102857.06;4988260;28;20801;-72
2024/02/17 08:22:10;;;;;;;6.05;0.40;;;;;;;5.54;55.02;102857.63;4997458;28;20430;-70
2024/02/17 08:24:36;;;;;;;9.23;1.17;;;;;;;5.57;54.18;102860.28;4989668;28;20627;-68
2024/02/17 08:27:01;;;;;;;2.75;0.50;;;;;;;5.63;53.68;102860.31;4981844;28;20906;-68
2024/02/17 08:29:27;;;;;;;7.40;0.40;;;;;;;5.74;53.93;102862.19;4978644;28;20045;-68
2024/02/17 08:31:52;;;;;;;3.13;0.20;;;;;;;5.74;53.41;102867.38;4965260;28;20036;-69
2024/02/17 08:34:18;;;;;;;7.97;0.57;;;;;;;5.81;53.66;102879.56;4987603;28;20143;-67
2024/02/17 08:36:44;;;;;;;7.32;0.70;;;;;;;5.66;53.46;102881.13;4981385;28;20046;-68
2024/02/17 08:39:10;;;;;;;4.88;0.28;;;;;;;5.49;53.71;102892.13;4997963;28;20040;-67
2024/02/17 08:41:35;;;;;;;12.80;1.15;;;;;;;5.64;53.17;102887.16;4993409;28;20040;-70
2024/02/17 08:44:01;;;;;;;4.72;0.35;;;;;;;5.76;52.57;102896.81;4982787;28;21159;-68
2024/02/17 08:46:26;;;;;;;6.07;0.50;;;;;;;5.61;53.21;102892.28;4992952;28;20455;-69
2024/02/17 08:48:55;;;;;;;2.97;0.30;;;;;;;5.77;52.66;102888.16;4979647;28;20157;-71
2024/02/17 08:51:21;;;;;;;8.80;0.50;;;;;;;5.75;52.22;102892.47;4991802;28;20132;-71
2024/02/17 08:53:46;;;;;;;8.23;0.50;;;;;;;5.40;53.06;102892.88;4984596;28;20175;-71
2024/02/17 08:56:12;;;;;;;3.50;0.38;;;;;;;4.94;52.74;102897.38;4994133;28;20136;-69
2024/02/17 08:58:37;;;;;;;7.78;0.50;;;;;;;5.21;52.50;102887.44;4992634;28;20075;-77
2024/02/17 09:01:03;;;;;;;8.95;0.95;;;;;;;5.65;51.14;102897.53;4969271;28;20377;-74
2024/02/17 09:03:30;;;;;;;6.03;0.28;;;;;;;4.98;50.74;102899.16;4986123;28;20083;-77
2024/02/17 09:05:55;;;;;;;4.63;0.40;;;;;;;5.52;50.44;102911.19;4980631;28;20045;-76
2024/02/17 09:08:20;;;;;;;10.93;0.50;;;;;;;5.85;49.84;102917.69;4989364;28;20080;-73
2024/02/17 09:10:46;;;;;;;6.30;0.57;;;;;;;5.83;50.06;102928.03;4991267;28;22421;-73
2024/02/17 09:13:11;;;;;;;11.48;0.50;;;;;;;5.74;50.44;102919.28;4969205;28;20037;-72
2024/02/17 09:15:37;;;;;;;6.93;1.02;;;;;;;5.96;49.95;102926.47;4995954;28;20033;-71
2024/02/17 09:18:03;;;;;;;4.00;0.40;;;;;;;5.92;50.49;102935.06;4980395;28;20073;-69
2024/02/17 09:20:28;;;;;;;14.30;0.43;;;;;;;5.74;50.13;102940.03;4990471;28;20036;-69
2024/02/17 09:22:54;;;;;;;7.20;0.20;;;;;;;6.02;48.58;102936.94;4964657;28;20025;-68
2024/02/17 09:25:20;;;;;;;12.93;0.60;;;;;;;6.19;48.33;102938.84;4978647;28;20057;-69
2024/02/17 09:27:46;;;;;;;16.05;1.40;;;;;;;5.99;47.84;102949.00;4990483;28;20037;-67
2024/02/17 09:30:12;;;;;;;6.95;1.80;;;;;;;6.12;47.72;102953.50;4961309;28;20026;-68
2024/02/17 09:32:38;;;;;;;10.93;0.43;;;;;;;6.02;47.92;102962.91;4957706;28;20076;-68
2024/02/17 09:35:03;;;;;;;3.40;0.20;;;;;;;5.57;48.18;102955.34;4964459;28;20895;-69
2024/02/17 09:37:29;;;;;;;5.07;0.28;;;;;;;5.51;47.95;102966.53;4977620;28;20128;-69
2024/02/17 09:39:57;;;;;;;5.10;0.40;;;;;;;5.62;48.08;102961.50;4962752;28;20687;-69
2024/02/17 09:42:23;;;;;;;15.48;0.63;;;;;;;5.09;49.16;102975.38;4975987;28;20044;-70
2024/02/17 09:44:49;;;;;;;8.27;0.50;;;;;;;5.41;48.00;102978.50;4993511;28;20037;-66
2024/02/17 09:47:15;;;;;;;7.53;0.90;;;;;;;5.69;47.86;102975.44;4989539;28;20455;-69
2024/02/17 09:49:43;;;;;;;8.40;0.98;;;;;;;5.83;47.11;102979.94;4996198;28;20029;-70
2024/02/17 09:52:10;;;;;;;6.28;0.68;;;;;;;5.81;46.65;102973.00;4984288;28;20398;-68
2024/02/17 09:54:37;;;;;;;9.73;0.93;;;;;;;5.57;47.19;102971.81;4997523;28;20033;-69
2024/02/17 09:57:05;;;;;;;8.07;0.40;;;;;;;6.47;45.78;102976.44;4984271;28;20049;-69
2024/02/17 09:59:31;;;;;;;5.43;0.80;;;;;;;6.73;45.41;102973.22;4995579;28;20491;-69
2024/02/17 10:01:57;;;;;;;14.52;0.82;;;;;;;6.71;45.41;102986.22;4981541;28;20051;-69
2024/02/17 10:04:23;;;;;;;11.55;0.75;;;;;;;7.25;44.33;102974.56;4978875;28;20033;-71
2024/02/17 10:07:03;;;;;;;11.60;1.10;;;;;;;7.19;43.51;102979.69;4979481;28;20095;-70
2024/02/17 10:09:29;;;;;;;7.85;0.75;;;;;;;7.14;44.32;102986.59;4994483;28;20030;-69
2024/02/17 10:11:55;;;;;;;14.43;0.75;;;;;;;7.17;44.01;102986.63;4975227;28;20049;-66
2024/02/17 10:14:27;;;;;;;6.15;0.75;;;;;;;6.73;45.38;103002.69;4996982;28;20034;-69
2024/02/17 10:16:58;;;;;;;;;;;;;;;6.54;45.82;103008.56;4987495;28;20080;-67
2024/02/17 10:19:24;;;;;;;7.93;0.75;;;;;;;6.28;46.22;103024.69;4995426;28;20331;-68
2024/02/17 10:21:58;;;;;;;6.75;1.48;;;;;;;6.32;46.13;103025.59;4959111;28;20626;-66
2024/02/17 10:24:24;;;;;;;5.63;0.75;;;;;;;6.45;45.92;103024.91;4935630;28;20607;-67
2024/02/17 10:26:59;;;;;;;6.93;0.60;;;;;;;7.19;44.27;103030.84;4970616;23;20146;-69
2024/02/17 10:29:26;;;;;;;4.90;0.30;;;;;;;7.76;42.58;103028.69;4913722;28;20065;-65
2024/02/17 10:31:53;;;;;;;11.20;0.50;;;;;;;8.78;40.81;103025.66;4907804;28;20054;-65
2024/02/17 10:34:22;;;;;;;8.77;0.38;;;;;;;9.19;40.69;103022.25;4903548;28;20469;-69
2024/02/17 10:36:54;;;;;;;13.43;0.93;;;;;;;9.88;37.99;103024.81;4885933;28;20119;-68
2024/02/17 10:39:28;;;;;;;3.45;0.52;;;;;;;9.27;38.70;103032.69;4925339;28;20022;-65
2024/02/17 10:41:55;;;;;;;5.00;0.73;;;;;;;8.96;39.27;103027.44;4940667;28;20043;-68
2024/02/17 10:44:23;;;;;;;10.15;0.70;;;;;;;8.46;40.64;103031.66;4915967;28;20038;-65
2024/02/17 10:46:49;;;;;;;14.35;1.02;;;;;;;7.91;40.93;103039.19;4939775;28;20507;-66
2024/02/17 10:49:32;;;;;;;5.72;0.93;;;;;;;7.44;41.50;103043.19;4943850;28;20455;-65
2024/02/17 10:52:05;;;;;;;4.55;0.35;;;;;;;7.06;42.41;103050.66;4948586;28;20180;-65
2024/02/17 10:55:01;;;;;;;4.57;0.95;;;;;;;7.39;42.01;103059.63;4943663;28;20149;-66
2024/02/17 10:57:38;;;;;;;14.25;0.80;;;;;;;7.40;42.43;103050.97;4955180;28;20137;-67
2024/02/17 11:00:05;;;;;;;6.55;1.00;;;;;;;7.21;43.05;103058.63;4950583;28;20030;-65
2024/02/17 11:02:32;;;;;;;9.88;0.40;;;;;;;7.54;42.87;103062.38;4957295;28;20050;-67
2024/02/17 11:04:58;;;;;;;6.35;0.60;;;;;;;7.40;42.42;103063.97;4954911;28;20539;-65
2024/02/17 11:07:26;;;;;;;12.23;0.68;;;;;;;7.16;42.87;103068.09;4950665;28;20203;-67
2024/02/17 11:10:02;;;;;;;11.68;0.45;;;;;;;8.31;41.79;103079.34;4960200;28;20985;-67
2024/02/17 11:12:35;;;;;;;10.68;0.63;;;;;;;8.95;40.07;103073.50;4957401;28;20030;-66
2024/02/17 11:15:08;;;;;;;8.23;0.38;;;;;;;8.74;39.53;103086.53;4951881;28;20054;-67
2024/02/17 11:17:50;;;;;;;8.77;0.50;;;;;;;7.69;40.15;103077.22;4957584;28;20089;-67
2024/02/17 11:20:17;;;;;;;3.72;0.30;;;;;;;7.64;40.82;103082.41;4951644;28;20050;-65
2024/02/17 11:22:56;;;;;;;10.52;0.68;;;;;;;7.59;41.26;103078.03;4957163;28;20038;-64
2024/02/17 11:25:39;;;;;;;10.20;0.63;;;;;;;7.63;40.97;103083.28;4948264;28;20911;-65
2024/02/17 11:28:17;;;;;;;8.63;0.55;;;;;;;7.25;41.92;103090.72;4947405;28;20544;-66
2024/02/17 11:30:51;;;;;;;3.92;0.47;;;;;;;6.88;41.75;103093.81;4938534;28;20480;-68
2024/02/17 11:33:34;;;;;;;3.88;0.40;;;;;;;6.87;42.31;103081.69;4890631;28;20579;-69